Time;durP1;ratioP1;P1;durP2;ratioP2;P2;SDS_P1;SDS_P2;PMS_P1;PMS_P2;Temp;Humidity;BMP_temperature;BMP_pressure;BME280_temperature;BME280_humidity;BME280_pressure;Samples;Min_cycle;Max_cycle;Signal;HPM_P1;HPM_P2
2022/08/18 00:01:59;;;;;;;18.25;10.60;;;19.00;99.90;;;;;;5016749;28;20084;-66
2022/08/18 00:04:25;;;;;;;23.40;10.45;;;18.90;99.90;;;;;;5003735;28;20057;-66
2022/08/18 00:06:50;;;;;;;25.13;12.57;;;18.80;99.90;;;;;;5017313;28;20488;-65
2022/08/18 00:09:16;;;;;;;22.98;10.68;;;19.00;99.90;;;;;;5034810;28;20029;-66
2022/08/18 00:11:43;;;;;;;19.98;9.98;;;18.90;99.90;;;;;;5017035;28;20033;-66
2022/08/18 00:14:13;;;;;;;25.42;12.05;;;18.70;99.90;;;;;;5017090;28;20122;-66
2022/08/18 00:16:38;;;;;;;27.58;12.18;;;18.80;99.90;;;;;;5016902;28;20441;-65
2022/08/18 00:19:04;;;;;;;25.73;11.77;;;19.00;99.90;;;;;;5016820;28;20037;-65
2022/08/18 00:21:29;;;;;;;19.05;11.25;;;19.10;99.90;;;;;;5033089;28;20056;-66
2022/08/18 00:23:55;;;;;;;22.77;10.82;;;19.00;99.90;;;;;;5017107;28;20116;-65
2022/08/18 00:26:21;;;;;;;23.70;10.70;;;19.00;99.90;;;;;;5016609;28;20084;-66
2022/08/18 00:28:47;;;;;;;19.58;10.23;;;19.00;99.90;;;;;;5016837;28;20037;-66
2022/08/18 00:31:12;;;;;;;22.02;11.05;;;19.00;99.90;;;;;;5016471;28;20533;-66
2022/08/18 00:33:38;;;;;;;25.48;11.52;;;18.90;99.90;;;;;;5016918;28;20052;-66
2022/08/18 00:36:04;;;;;;;21.77;11.15;;;19.10;99.90;;;;;;5034549;28;20037;-66
2022/08/18 00:38:29;;;;;;;27.27;12.63;;;18.60;99.90;;;;;;5016524;28;20041;-66
2022/08/18 00:40:56;;;;;;;23.85;11.65;;;18.70;99.90;;;;;;5034100;28;20155;-65
2022/08/18 00:43:41;;;;;;;25.83;10.88;;;18.80;99.90;;;;;;5034025;28;20060;-66
2022/08/18 00:46:12;;;;;;;22.38;11.57;;;18.80;99.90;;;;;;5034047;28;20049;-66
2022/08/18 00:48:38;;;;;;;28.60;11.90;;;18.70;99.90;;;;;;5034173;28;20534;-65
2022/08/18 00:51:10;;;;;;;26.77;11.68;;;18.80;99.90;;;;;;5034306;28;20037;-66
2022/08/18 00:53:39;;;;;;;21.15;10.75;;;18.60;99.90;;;;;;5016253;28;20049;-66
2022/08/18 00:56:17;;;;;;;27.00;12.05;;;18.70;99.90;;;;;;5015102;28;20120;-66
2022/08/18 00:58:52;;;;;;;23.98;10.98;;;19.00;99.90;;;;;;5033838;28;20047;-66
2022/08/18 01:01:22;;;;;;;19.52;10.25;;;18.70;99.90;;;;;;5016421;28;20388;-65
2022/08/18 01:03:52;;;;;;;24.40;12.45;;;18.80;99.90;;;;;;5015889;28;20068;-66
2022/08/18 01:06:35;;;;;;;20.23;10.60;;;18.70;99.90;;;;;;5015983;28;20057;-66
2022/08/18 01:09:02;;;;;;;21.10;11.80;;;18.70;99.90;;;;;;5016297;28;20054;-66
2022/08/18 01:11:28;;;;;;;26.17;12.55;;;18.60;99.90;;;;;;5015916;28;20073;-66
2022/08/18 01:13:54;;;;;;;21.67;11.27;;;18.60;99.90;;;;;;5033732;28;20502;-66
2022/08/18 01:21:55;;;;;;;21.75;12.30;;;18.50;99.90;;;;;;5015511;28;20057;-66
2022/08/18 01:27:17;;;;;;;22.08;10.90;;;18.70;99.90;;;;;;5033643;28;20073;-66
2022/08/18 01:29:44;;;;;;;18.98;11.43;;;18.70;99.90;;;;;;5033561;28;20065;-66
2022/08/18 01:32:18;;;;;;;17.95;11.75;;;18.50;99.90;;;;;;5033139;28;20049;-65
2022/08/18 01:34:47;;;;;;;19.73;10.52;;;18.60;99.90;;;;;;5015616;28;20044;-65
2022/08/18 01:37:17;;;;;;;26.88;11.35;;;18.70;99.90;;;;;;5015616;28;20132;-66
2022/08/18 01:39:43;;;;;;;19.10;11.43;;;18.70;99.90;;;;;;5033077;28;20507;-66
2022/08/18 01:42:10;;;;;;;21.15;11.80;;;18.60;99.90;;;;;;5032931;28;20092;-66
2022/08/18 01:44:40;;;;;;;16.65;10.65;;;18.50;99.90;;;;;;5033054;28;20034;-66
2022/08/18 01:47:07;;;;;;;19.13;11.57;;;18.70;99.90;;;;;;5015577;28;20041;-65
2022/08/18 01:49:32;;;;;;;14.55;10.98;;;18.40;99.90;;;;;;5015372;28;20076;-66
2022/08/18 01:51:58;;;;;;;18.83;11.57;;;18.70;99.90;;;;;;5015091;28;20065;-66
2022/08/18 01:54:28;;;;;;;27.58;12.30;;;18.60;99.90;;;;;;5032823;28;20038;-66
2022/08/18 01:56:54;;;;;;;18.55;10.98;;;18.40;99.90;;;;;;5015241;28;20037;-65
2022/08/18 01:59:20;;;;;;;19.77;11.02;;;18.70;99.90;;;;;;5032707;28;20037;-66
2022/08/18 02:01:47;;;;;;;19.73;10.55;;;18.50;99.90;;;;;;5014885;28;20443;-65
2022/08/18 02:04:15;;;;;;;18.60;10.65;;;18.70;99.90;;;;;;5032616;28;20521;-65
2022/08/18 02:06:40;;;;;;;24.50;11.90;;;18.60;99.90;;;;;;5014451;28;20045;-66
2022/08/18 02:09:06;;;;;;;20.90;12.10;;;18.80;99.90;;;;;;5014920;28;20074;-67
2022/08/18 02:11:32;;;;;;;21.27;12.77;;;18.70;99.90;;;;;;5015193;28;20050;-66
2022/08/18 02:13:57;;;;;;;20.48;12.45;;;18.80;99.90;;;;;;5032414;28;20198;-66
2022/08/18 02:16:23;;;;;;;22.50;11.98;;;18.80;99.90;;;;;;5014896;28;20042;-66
2022/08/18 02:18:49;;;;;;;26.35;13.15;;;18.80;99.90;;;;;;5032557;28;20049;-66
2022/08/18 02:21:17;;;;;;;24.30;13.65;;;18.60;99.90;;;;;;5014677;28;20381;-66
2022/08/18 02:23:43;;;;;;;20.65;12.63;;;18.50;99.90;;;;;;5032282;28;20041;-66
2022/08/18 02:26:13;;;;;;;22.45;11.70;;;18.50;99.90;;;;;;5014985;28;20037;-65
2022/08/18 02:28:39;;;;;;;25.83;12.20;;;18.60;99.90;;;;;;5032328;28;20508;-66
2022/08/18 02:31:16;;;;;;;21.85;11.35;;;18.80;99.90;;;;;;5032258;28;20072;-66
2022/08/18 02:33:43;;;;;;;24.20;11.93;;;18.60;99.90;;;;;;5014939;28;20049;-66
2022/08/18 02:36:09;;;;;;;23.70;12.77;;;18.30;99.90;;;;;;5014427;28;20049;-66
2022/08/18 02:38:34;;;;;;;23.88;12.25;;;18.60;99.90;;;;;;5014591;28;20044;-65
2022/08/18 02:41:05;;;;;;;20.73;11.75;;;18.60;99.90;;;;;;5032196;28;20091;-66
2022/08/18 02:43:30;;;;;;;20.95;11.90;;;18.80;99.90;;;;;;5014141;28;20050;-65
2022/08/18 02:45:57;;;;;;;18.92;10.77;;;18.50;99.90;;;;;;5014655;28;20037;-66
2022/08/18 02:48:30;;;;;;;28.13;12.35;;;18.60;99.90;;;;;;5032248;28;20041;-66
2022/08/18 02:51:21;;;;;;;17.17;11.05;;;18.70;99.90;;;;;;5031956;28;20041;-65
2022/08/18 02:53:47;;;;;;;21.77;11.43;;;20.00;99.90;;;;;;5011440;28;20128;-65
2022/08/18 02:56:23;;;;;;;20.40;11.05;;;18.50;99.90;;;;;;5014653;28;20121;-65
2022/08/18 02:59:03;;;;;;;20.65;10.18;;;18.80;99.90;;;;;;5014258;28;20051;-65
2022/08/18 03:01:32;;;;;;;18.92;10.13;;;18.60;99.90;;;;;;5014482;28;20426;-65
2022/08/18 03:03:58;;;;;;;16.77;9.75;;;18.80;99.90;;;;;;4994095;28;20050;-65
2022/08/18 03:06:26;;;;;;;18.27;9.60;;;18.80;99.90;;;;;;5000160;28;20042;-65
2022/08/18 03:08:52;;;;;;;26.05;10.50;;;18.70;99.90;;;;;;5010760;28;20117;-66
2022/08/18 03:11:24;;;;;;;18.00;9.95;;;18.90;99.90;;;;;;4994501;28;20556;-66
2022/08/18 03:13:51;;;;;;;21.70;10.35;;;18.50;99.90;;;;;;5012161;28;20061;-65
2022/08/18 03:16:17;;;;;;;18.83;10.07;;;18.50;99.90;;;;;;5012259;28;20034;-65
2022/08/18 03:18:45;;;;;;;18.38;9.90;;;18.60;99.90;;;;;;5012024;28;20511;-66
2022/08/18 03:21:16;;;;;;;19.08;10.25;;;18.50;99.90;;;;;;5016109;28;20042;-66
2022/08/18 03:23:42;;;;;;;18.77;10.15;;;18.50;99.90;;;;;;5016157;28;20076;-65
2022/08/18 03:26:11;;;;;;;19.45;9.15;;;18.70;99.90;;;;;;5014612;28;20670;-66
2022/08/18 03:28:39;;;;;;;24.02;10.00;;;18.40;99.90;;;;;;5016075;28;20054;-65
2022/08/18 03:31:06;;;;;;;15.68;9.50;;;18.80;99.90;;;;;;5014322;28;20472;-65
2022/08/18 03:33:32;;;;;;;21.23;8.82;;;18.70;99.90;;;;;;5014842;28;20064;-66
2022/08/18 03:36:08;;;;;;;16.02;9.82;;;18.60;99.90;;;;;;5014444;28;20045;-67
2022/08/18 03:38:34;;;;;;;19.20;9.85;;;18.70;99.90;;;;;;5003035;28;20048;-66
2022/08/18 03:41:00;;;;;;;20.85;10.23;;;18.60;99.90;;;;;;5015870;28;20038;-66
2022/08/18 03:43:26;;;;;;;20.33;10.68;;;18.70;99.90;;;;;;5014745;28;20515;-65
2022/08/18 03:45:55;;;;;;;18.38;10.38;;;18.50;99.90;;;;;;5014544;28;20484;-66
2022/08/18 03:48:21;;;;;;;19.65;10.82;;;18.40;99.90;;;;;;5014362;28;20124;-66
2022/08/18 03:50:47;;;;;;;18.05;9.35;;;18.50;99.90;;;;;;5014363;28;20540;-66
2022/08/18 03:53:13;;;;;;;19.05;11.13;;;18.50;99.90;;;;;;5015482;28;20061;-66
2022/08/18 03:55:42;;;;;;;24.45;12.77;;;18.40;99.90;;;;;;5014259;28;20463;-66
2022/08/18 03:58:12;;;;;;;19.10;10.95;;;19.00;99.90;;;;;;5014282;28;20096;-67
2022/08/18 04:00:38;;;;;;;23.38;11.57;;;18.50;99.90;;;;;;5015176;28;20045;-66
2022/08/18 04:03:04;;;;;;;21.15;12.75;;;18.70;99.90;;;;;;5015898;28;20108;-66
2022/08/18 04:05:31;;;;;;;16.98;11.45;;;18.80;99.90;;;;;;5034869;28;20080;-66
2022/08/18 04:07:56;;;;;;;23.67;12.23;;;18.80;99.90;;;;;;5034873;28;20053;-66
2022/08/18 04:10:23;;;;;;;21.25;12.27;;;18.90;99.90;;;;;;5034927;28;20045;-66
2022/08/18 04:12:49;;;;;;;16.83;12.38;;;18.70;99.90;;;;;;5034926;28;20079;-65
2022/08/18 04:15:15;;;;;;;22.60;12.27;;;18.60;99.90;;;;;;5017251;28;20076;-66
2022/08/18 04:17:41;;;;;;;14.80;11.88;;;18.70;99.90;;;;;;5017197;28;20050;-66
2022/08/18 04:20:07;;;;;;;20.95;11.40;;;18.40;99.90;;;;;;5016903;28;20060;-66
2022/08/18 04:22:33;;;;;;;30.10;14.25;;;18.80;99.90;;;;;;5034751;28;20068;-66
2022/08/18 04:25:00;;;;;;;22.95;14.40;;;18.80;99.90;;;;;;5017100;28;20495;-65
2022/08/18 04:27:26;;;;;;;22.40;12.93;;;18.90;99.90;;;;;;5000412;28;20044;-65
2022/08/18 04:29:55;;;;;;;19.92;13.45;;;18.60;99.90;;;;;;5034224;28;20038;-66
2022/08/18 04:32:21;;;;;;;42.15;16.52;;;18.60;99.90;;;;;;5016697;28;20053;-66
2022/08/18 04:34:47;;;;;;;26.90;14.27;;;18.60;99.90;;;;;;5016579;28;20049;-66
2022/08/18 04:37:14;;;;;;;21.75;13.82;;;18.70;99.90;;;;;;5016634;28;20058;-65
2022/08/18 04:39:40;;;;;;;22.30;14.55;;;18.90;99.90;;;;;;5016598;28;20120;-66
2022/08/18 04:42:06;;;;;;;27.25;15.20;;;18.40;99.90;;;;;;5034290;28;20073;-65
2022/08/18 04:44:32;;;;;;;29.80;17.42;;;18.70;99.90;;;;;;5016303;28;20503;-68
2022/08/18 04:46:59;;;;;;;23.77;15.13;;;18.60;99.90;;;;;;5016317;28;20479;-66
2022/08/18 04:49:25;;;;;;;21.30;14.70;;;18.70;99.90;;;;;;5034229;28;20091;-66
2022/08/18 04:54:39;;;;;;;24.52;15.15;;;18.80;99.90;;;;;;5034376;28;20049;-66
2022/08/18 04:57:14;;;;;;;20.65;15.48;;;18.70;99.90;;;;;;5016031;28;20483;-66
2022/08/18 04:59:42;;;;;;;24.67;14.63;;;18.80;99.90;;;;;;5016532;28;20126;-66
2022/08/18 05:02:08;;;;;;;20.25;15.65;;;18.90;99.90;;;;;;5016131;28;20041;-66
2022/08/18 05:04:36;;;;;;;20.13;16.52;;;18.60;99.90;;;;;;5016216;28;20503;-66
2022/08/18 05:07:07;;;;;;;17.77;14.80;;;18.80;99.90;;;;;;5015973;28;20034;-66
2022/08/18 05:09:34;;;;;;;22.35;16.52;;;18.90;99.90;;;;;;5033764;28;20069;-66
2022/08/18 05:12:02;;;;;;;17.85;14.48;;;18.60;99.90;;;;;;5033702;28;20051;-66
2022/08/18 05:14:28;;;;;;;21.00;14.50;;;18.70;99.90;;;;;;5033944;28;20044;-66
2022/08/18 05:16:58;;;;;;;20.48;15.68;;;20.00;99.90;;;;;;5015886;28;20403;-66
2022/08/18 05:19:25;;;;;;;21.65;14.77;;;18.70;99.90;;;;;;5033788;28;20116;-66
2022/08/18 05:21:52;;;;;;;15.65;14.00;;;18.80;99.90;;;;;;5033775;28;20038;-66
2022/08/18 05:24:19;;;;;;;17.48;15.55;;;18.70;99.90;;;;;;5033495;28;20044;-66
2022/08/18 05:26:45;;;;;;;16.42;14.25;;;18.80;99.90;;;;;;5033463;28;20033;-66
2022/08/18 05:29:11;;;;;;;15.45;12.40;;;18.60;99.90;;;;;;5015615;28;20486;-66
2022/08/18 05:31:37;;;;;;;18.17;13.23;;;19.00;99.90;;;;;;5015870;28;20043;-66
2022/08/18 05:34:03;;;;;;;14.15;12.13;;;18.70;99.90;;;;;;5015681;28;20125;-66
2022/08/18 05:36:47;;;;;;;14.55;11.57;;;18.90;99.90;;;;;;5015564;28;20419;-66
2022/08/18 05:39:28;;;;;;;13.70;12.27;;;18.80;99.90;;;;;;5033457;28;20143;-66
2022/08/18 05:42:27;;;;;;;16.67;11.95;;;18.80;99.90;;;;;;4998280;28;20041;-66
2022/08/18 05:44:54;;;;;;;18.33;12.50;;;18.80;99.90;;;;;;5010868;28;20049;-67
2022/08/18 05:47:29;;;;;;;20.98;13.80;;;20.70;99.90;;;;;;5032792;28;20162;-66
2022/08/18 05:49:57;;;;;;;19.02;13.35;;;18.90;99.90;;;;;;5015232;28;20073;-66
2022/08/18 05:52:47;;;;;;;18.02;12.63;;;18.60;99.90;;;;;;5015305;28;20042;-66
2022/08/18 05:58:16;;;;;;;15.75;13.77;;;19.00;99.90;;;;;;5014982;28;20057;-66
2022/08/18 06:00:51;;;;;;;13.25;11.93;;;18.90;99.90;;;;;;5032899;28;20061;-66
2022/08/18 06:03:29;;;;;;;14.65;12.25;;;19.00;99.90;;;;;;5032825;28;20048;-66
2022/08/18 06:06:07;;;;;;;18.50;12.30;;;19.00;99.90;;;;;;5032821;28;20067;-66
2022/08/18 06:08:47;;;;;;;15.55;11.10;;;19.10;99.90;;;;;;5015190;28;20034;-66
2022/08/18 06:11:13;;;;;;;15.82;12.98;;;19.10;99.90;;;;;;5032781;28;20160;-66
2022/08/18 06:13:41;;;;;;;17.73;12.13;;;19.20;99.90;;;;;;5032120;28;20100;-66
2022/08/18 06:16:21;;;;;;;17.60;12.60;;;19.10;99.90;;;;;;5022144;28;20400;-66
2022/08/18 06:18:55;;;;;;;17.05;11.77;;;18.90;99.90;;;;;;4998914;28;20041;-67
2022/08/18 06:21:54;;;;;;;17.87;11.60;;;19.20;99.90;;;;;;4995582;28;20042;-66
2022/08/18 06:24:37;;;;;;;15.10;11.63;;;19.10;99.90;;;;;;5015116;28;20053;-66
2022/08/18 06:27:18;;;;;;;13.13;11.55;;;18.90;99.90;;;;;;5014334;28;20520;-66
2022/08/18 06:29:53;;;;;;;14.35;11.30;;;19.10;99.90;;;;;;4997339;28;20122;-66
2022/08/18 06:32:55;;;;;;;17.02;11.98;;;19.30;99.90;;;;;;5012635;28;20164;-66
2022/08/18 06:35:44;;;;;;;18.95;12.52;;;19.20;99.90;;;;;;5023592;28;20051;-66
2022/08/18 06:38:38;;;;;;;16.65;12.32;;;19.00;99.90;;;;;;5012245;28;20092;-66
2022/08/18 06:41:14;;;;;;;21.10;13.90;;;19.10;99.90;;;;;;5007147;28;20135;-66
2022/08/18 06:44:02;;;;;;;17.40;12.73;;;19.40;99.90;;;;;;5021634;28;20538;-67
2022/08/18 06:46:40;;;;;;;15.77;13.32;;;19.20;99.90;;;;;;5014255;28;20048;-66
2022/08/18 06:49:10;;;;;;;17.23;13.43;;;19.50;99.90;;;;;;5014683;28;20081;-66
2022/08/18 06:51:37;;;;;;;14.30;12.10;;;19.30;99.90;;;;;;5014113;28;20112;-66
2022/08/18 06:54:06;;;;;;;14.25;11.52;;;19.70;99.90;;;;;;5033007;28;20496;-66
2022/08/18 06:56:46;;;;;;;16.13;11.38;;;19.30;99.90;;;;;;5035375;28;20041;-66
2022/08/18 06:59:26;;;;;;;15.00;11.35;;;19.60;99.90;;;;;;5035565;28;20423;-66
2022/08/18 07:01:59;;;;;;;14.02;10.63;;;19.40;99.90;;;;;;5018179;28;20102;-66
2022/08/18 07:04:36;;;;;;;10.73;9.30;;;19.70;99.90;;;;;;5036006;28;20159;-66
2022/08/18 07:07:28;;;;;;;17.77;9.40;;;19.90;99.90;;;;;;5018131;28;20406;-67
2022/08/18 07:09:54;;;;;;;13.63;10.43;;;20.00;99.90;;;;;;5036376;28;20091;-66
2022/08/18 07:12:23;;;;;;;12.13;8.25;;;20.00;99.90;;;;;;5018062;28;20045;-66
2022/08/18 07:14:56;;;;;;;10.93;8.07;;;19.90;99.90;;;;;;5035270;28;20046;-66
2022/08/18 07:17:27;;;;;;;16.85;9.05;;;19.80;99.90;;;;;;5017953;28;20049;-66
2022/08/18 07:20:20;;;;;;;15.68;8.70;;;19.80;99.90;;;;;;5018126;28;20116;-66
2022/08/18 07:22:58;;;;;;;18.05;8.13;;;19.80;99.90;;;;;;5022380;28;20061;-66
2022/08/18 07:25:28;;;;;;;12.02;7.07;;;19.80;99.90;;;;;;5012478;28;20033;-67
2022/08/18 07:27:55;;;;;;;23.55;8.25;;;19.80;99.90;;;;;;5017752;28;20029;-67
2022/08/18 07:30:24;;;;;;;27.70;7.75;;;19.60;99.90;;;;;;5017908;28;20609;-66
2022/08/18 07:32:52;;;;;;;19.52;7.03;;;19.90;99.90;;;;;;5035755;28;20410;-66
2022/08/18 07:35:24;;;;;;;21.98;7.88;;;19.80;99.90;;;;;;5018259;28;20045;-66
2022/08/18 07:38:00;;;;;;;14.70;7.32;;;19.80;99.90;;;;;;5017845;28;20037;-67
2022/08/18 07:40:37;;;;;;;11.40;6.43;;;20.30;99.90;;;;;;5017723;28;20053;-67
2022/08/18 07:43:20;;;;;;;12.20;6.30;;;20.30;99.90;;;;;;5017637;28;20128;-67
2022/08/18 07:45:46;;;;;;;11.90;4.95;;;20.30;99.90;;;;;;5033357;28;20025;-66
2022/08/18 07:48:25;;;;;;;11.00;4.50;;;19.90;99.90;;;;;;5016872;28;20537;-66
2022/08/18 07:50:56;;;;;;;10.48;4.57;;;20.00;99.90;;;;;;5034917;28;20092;-66
2022/08/18 07:53:45;;;;;;;13.10;4.60;;;20.30;99.90;;;;;;5035038;28;20052;-66
2022/08/18 07:56:38;;;;;;;6.95;4.10;;;19.70;99.90;;;;;;5034655;28;20048;-66
2022/08/18 07:59:19;;;;;;;8.77;4.30;;;19.90;99.90;;;;;;5014288;28;20052;-66
2022/08/18 08:01:53;;;;;;;8.73;4.30;;;20.10;99.90;;;;;;5016831;28;20033;-66
2022/08/18 08:04:44;;;;;;;8.45;3.75;;;19.70;99.90;;;;;;5016285;28;20054;-66
2022/08/18 08:07:15;;;;;;;9.93;3.97;;;20.00;99.90;;;;;;5016497;28;20514;-67
2022/08/18 08:09:53;;;;;;;4.63;2.97;;;19.70;99.90;;;;;;5016688;28;20167;-66
2022/08/18 08:12:44;;;;;;;5.80;2.78;;;19.60;99.90;;;;;;5016160;28;20467;-66
2022/08/18 08:15:16;;;;;;;4.50;3.13;;;19.90;99.90;;;;;;5016715;28;20041;-66
2022/08/18 08:18:14;;;;;;;5.10;3.00;;;19.90;99.90;;;;;;5034218;28;20033;-67
2022/08/18 08:20:52;;;;;;;3.90;2.30;;;20.10;99.90;;;;;;5011014;28;20099;-66
2022/08/18 08:23:31;;;;;;;5.80;2.25;;;19.80;99.90;;;;;;5016378;28;20042;-67
2022/08/18 08:26:19;;;;;;;4.90;2.40;;;19.80;99.90;;;;;;5033968;28;20504;-67
2022/08/18 08:29:02;;;;;;;3.05;1.73;;;19.70;99.90;;;;;;5033898;28;20038;-66
2022/08/18 08:32:02;;;;;;;6.68;2.53;;;19.90;99.90;;;;;;5015348;28;20037;-66
2022/08/18 08:34:46;;;;;;;3.72;1.70;;;20.00;99.90;;;;;;5015894;28;20041;-66
2022/08/18 08:37:18;;;;;;;5.03;1.75;;;20.10;99.90;;;;;;5023875;28;20476;-66
2022/08/18 08:39:50;;;;;;;2.97;1.10;;;20.30;99.90;;;;;;5012911;28;20434;-67
2022/08/18 08:42:33;;;;;;;3.45;1.27;;;20.80;99.90;;;;;;5033752;28;20045;-66
2022/08/18 08:45:05;;;;;;;5.00;1.52;;;20.30;99.90;;;;;;5015441;28;20053;-67
2022/08/18 08:47:56;;;;;;;2.58;1.20;;;20.10;99.90;;;;;;5033233;28;20038;-66
2022/08/18 08:50:26;;;;;;;2.90;1.13;;;20.30;99.90;;;;;;5007519;28;20033;-66
2022/08/18 08:52:58;;;;;;;2.47;1.42;;;20.40;99.90;;;;;;5016138;28;20045;-66
2022/08/18 08:55:43;;;;;;;7.43;1.55;;;20.40;99.90;;;;;;5016000;28;20167;-66
2022/08/18 08:58:24;;;;;;;4.60;1.50;;;20.30;99.90;;;;;;5024137;28;20108;-65
2022/08/18 09:00:51;;;;;;;3.78;0.93;;;20.40;99.90;;;;;;5014803;28;20482;-66
2022/08/18 09:03:30;;;;;;;4.55;1.30;;;20.60;99.90;;;;;;5015400;28;20049;-66
2022/08/18 09:05:58;;;;;;;4.82;1.88;;;20.70;99.90;;;;;;5033004;28;20510;-65
2022/08/18 09:08:33;;;;;;;1.77;1.10;;;20.60;99.90;;;;;;5033926;28;20087;-65
2022/08/18 09:11:27;;;;;;;5.10;1.38;;;20.70;99.90;;;;;;5034079;28;20407;-66
2022/08/18 09:14:22;;;;;;;3.40;1.52;;;20.90;99.90;;;;;;5021577;28;20041;-65
2022/08/18 09:16:58;;;;;;;3.20;1.52;;;21.00;99.90;;;;;;5032890;28;20043;-65
2022/08/18 09:20:08;;;;;;;4.05;1.48;;;21.40;99.90;;;;;;5016344;28;20072;-65
2022/08/18 09:22:53;;;;;;;1.80;1.10;;;21.40;99.90;;;;;;5033119;28;20427;-65
2022/08/18 09:25:36;;;;;;;2.38;0.90;;;21.50;99.90;;;;;;5033702;28;20044;-65
2022/08/18 09:28:28;;;;;;;2.08;1.10;;;21.40;99.90;;;;;;5033258;28;20526;-65
2022/08/18 09:31:05;;;;;;;2.97;1.15;;;21.60;99.90;;;;;;5002694;28;20046;-65
2022/08/18 09:33:39;;;;;;;4.63;0.80;;;21.50;99.90;;;;;;5003475;28;20049;-65
2022/08/18 09:36:07;;;;;;;4.30;1.33;;;21.40;99.90;;;;;;5007102;28;20053;-65
2022/08/18 09:41:30;;;;;;;3.17;1.25;;;21.40;99.90;;;;;;5025017;28;20050;-65
2022/08/18 09:44:09;;;;;;;4.35;1.10;;;21.50;99.90;;;;;;5030741;28;20042;-65
2022/08/18 09:46:46;;;;;;;3.60;0.85;;;21.90;99.90;;;;;;5032541;28;20043;-64
2022/08/18 09:49:21;;;;;;;3.65;1.10;;;22.20;99.90;;;;;;5014734;28;20045;-64
2022/08/18 09:51:51;;;;;;;3.08;1.15;;;22.00;99.90;;;;;;5014090;28;20033;-64
2022/08/18 09:54:20;;;;;;;5.88;1.08;;;21.90;99.90;;;;;;5033030;28;20056;-64
2022/08/18 09:56:48;;;;;;;2.92;1.10;;;22.00;99.90;;;;;;5015250;28;20056;-64
2022/08/18 09:59:35;;;;;;;3.10;1.00;;;21.60;99.90;;;;;;5015053;28;20037;-64
2022/08/18 10:02:09;;;;;;;2.55;0.95;;;21.50;99.90;;;;;;4984910;28;20107;-64
2022/08/18 10:04:50;;;;;;;2.95;0.90;;;21.60;99.90;;;;;;5032542;28;20064;-64
2022/08/18 10:07:30;;;;;;;4.60;1.25;;;21.70;99.90;;;;;;5032800;28;20044;-64
2022/08/18 10:10:27;;;;;;;2.70;1.27;;;21.90;99.90;;;;;;5014756;28;20083;-64
2022/08/18 10:13:23;;;;;;;5.78;0.90;;;22.20;99.90;;;;;;5027575;28;20057;-64
2022/08/18 10:16:15;;;;;;;4.53;0.70;;;22.20;99.90;;;;;;5007447;28;20049;-64
2022/08/18 10:19:15;;;;;;;3.35;0.82;;;22.40;99.90;;;;;;5010223;28;20530;-64
2022/08/18 10:21:58;;;;;;;4.28;1.17;;;22.20;99.90;;;;;;5032746;28;20041;-64
2022/08/18 10:24:52;;;;;;;2.47;0.70;;;21.80;99.90;;;;;;5024532;28;20049;-64
2022/08/18 10:27:43;;;;;;;3.60;0.80;;;22.20;99.90;;;;;;5028423;28;20045;-64
2022/08/18 10:30:32;;;;;;;4.93;1.88;;;22.10;99.90;;;;;;5031742;28;20041;-64
2022/08/18 10:32:58;;;;;;;4.38;1.50;;;22.00;99.90;;;;;;5014592;28;20053;-65
2022/08/18 10:35:35;;;;;;;3.67;0.77;;;22.10;99.90;;;;;;5014732;28;20063;-64
2022/08/18 10:38:20;;;;;;;7.13;1.10;;;22.00;99.90;;;;;;5014536;28;20049;-64
2022/08/18 10:41:07;;;;;;;4.72;1.25;;;22.20;99.90;;;;;;5014774;28;20041;-64
2022/08/18 10:43:41;;;;;;;4.40;1.25;;;21.80;99.90;;;;;;5031978;28;20041;-64
2022/08/18 10:46:16;;;;;;;3.58;1.55;;;21.80;99.90;;;;;;5032126;28;20033;-64
2022/08/18 10:48:42;;;;;;;4.88;1.65;;;21.50;99.90;;;;;;5019016;28;20049;-64
2022/08/18 10:51:17;;;;;;;3.80;1.02;;;22.00;99.90;;;;;;5032235;28;20037;-64
2022/08/18 10:54:21;;;;;;;4.88;1.02;;;22.00;99.90;;;;;;5014598;28;20134;-64
2022/08/18 10:56:54;;;;;;;3.28;0.88;;;21.80;99.90;;;;;;5032169;28;20094;-64
2022/08/18 10:59:42;;;;;;;1.92;0.90;;;21.80;99.90;;;;;;5032318;28;20510;-64
2022/08/18 11:02:33;;;;;;;3.03;0.75;;;21.60;99.90;;;;;;5013672;28;20483;-64
2022/08/18 11:05:06;;;;;;;2.20;0.73;;;21.50;99.90;;;;;;5031735;28;20060;-64
2022/08/18 11:07:34;;;;;;;2.80;0.95;;;21.70;99.90;;;;;;5014478;28;20049;-64
2022/08/18 11:10:13;;;;;;;5.60;1.40;;;21.60;99.90;;;;;;5032073;28;20033;-64
2022/08/18 11:13:01;;;;;;;2.38;1.38;;;21.90;99.90;;;;;;5002162;28;20534;-64
2022/08/18 11:15:39;;;;;;;5.38;0.80;;;21.80;99.90;;;;;;5014203;28;20057;-64
2022/08/18 11:18:07;;;;;;;1.65;0.57;;;22.00;99.90;;;;;;5031987;28;20136;-64
2022/08/18 11:20:33;;;;;;;2.15;0.85;;;22.00;99.90;;;;;;5031712;28;20061;-64
2022/08/18 11:23:02;;;;;;;3.28;0.82;;;22.00;99.90;;;;;;5031786;28;20084;-64
2022/08/18 11:25:30;;;;;;;4.88;0.80;;;22.00;99.90;;;;;;5031911;28;20041;-64
2022/08/18 11:27:56;;;;;;;2.50;0.90;;;22.10;99.90;;;;;;5031815;28;20510;-64
2022/08/18 11:30:26;;;;;;;1.70;0.70;;;22.20;99.90;;;;;;5031991;28;20041;-64
2022/08/18 11:32:53;;;;;;;3.90;1.05;;;22.20;99.90;;;;;;5031898;28;20045;-64
2022/08/18 11:35:23;;;;;;;4.05;1.00;;;22.20;99.90;;;;;;5031907;28;20435;-64
2022/08/18 11:37:57;;;;;;;4.45;1.10;;;22.10;99.90;;;;;;5031799;28;20052;-64
2022/08/18 11:40:41;;;;;;;4.30;1.02;;;22.40;99.90;;;;;;5034008;28;20045;-64
2022/08/18 11:43:17;;;;;;;4.68;1.83;;;22.20;99.90;;;;;;5035507;28;20175;-64
2022/08/18 11:45:43;;;;;;;4.68;1.25;;;22.50;99.90;;;;;;5035230;28;20037;-64
2022/08/18 11:48:27;;;;;;;2.22;1.20;;;22.40;99.90;;;;;;5017342;28;20045;-65
2022/08/18 11:50:58;;;;;;;4.55;1.10;;;22.50;99.90;;;;;;5035028;28;20116;-64
2022/08/18 11:53:32;;;;;;;3.03;1.13;;;22.50;99.90;;;;;;5017534;28;20085;-64
2022/08/18 11:56:20;;;;;;;2.67;0.60;;;22.30;99.90;;;;;;5035509;28;20048;-64
2022/08/18 11:58:46;;;;;;;2.42;0.73;;;22.80;99.90;;;;;;5035096;28;20522;-64
2022/08/18 12:01:38;;;;;;;3.72;0.80;;;22.60;99.90;;;;;;5017389;28;20077;-64
2022/08/18 12:04:13;;;;;;;2.78;0.80;;;22.70;99.90;;;;;;5020828;28;20049;-64
2022/08/18 12:07:07;;;;;;;2.22;0.80;;;22.90;99.90;;;;;;5017083;28;20080;-64
2022/08/18 12:09:48;;;;;;;1.95;0.70;;;22.80;99.90;;;;;;5017662;28;20041;-64
2022/08/18 12:12:23;;;;;;;6.50;1.17;;;22.40;99.90;;;;;;5017208;28;20041;-64
2022/08/18 12:15:07;;;;;;;;;;;22.70;99.90;;;;;;5035320;28;20045;-64
2022/08/18 12:17:32;;;;;;;2.42;1.15;;;22.90;99.90;;;;;;5017151;28;20303;-64
2022/08/18 12:19:58;;;;;;;2.10;0.88;;;22.90;99.90;;;;;;5017385;28;20045;-64
2022/08/18 12:22:29;;;;;;;5.07;1.45;;;23.10;99.90;;;;;;5034541;28;20116;-64
2022/08/18 12:24:56;;;;;;;4.13;0.90;;;23.00;99.90;;;;;;5034866;28;20068;-65
2022/08/18 12:27:24;;;;;;;2.53;1.13;;;23.10;99.90;;;;;;5034724;28;20206;-64
2022/08/18 12:29:52;;;;;;;2.67;1.00;;;23.10;99.90;;;;;;5034388;28;20081;-64
2022/08/18 12:32:19;;;;;;;4.05;1.45;;;23.20;99.90;;;;;;5016722;28;20510;-64
2022/08/18 12:34:45;;;;;;;3.50;1.23;;;23.00;99.90;;;;;;5017030;28;20041;-64
2022/08/18 12:37:16;;;;;;;2.13;1.10;;;23.20;99.90;;;;;;5034376;28;20037;-64
2022/08/18 12:39:41;;;;;;;2.95;1.13;;;23.00;99.90;;;;;;5016626;28;20037;-64
2022/08/18 12:42:08;;;;;;;2.10;1.20;;;22.90;99.90;;;;;;5016368;28;20033;-64
2022/08/18 12:44:33;;;;;;;2.60;1.23;;;23.10;99.90;;;;;;5034230;28;20514;-65
2022/08/18 12:47:11;;;;;;;3.88;1.55;;;22.90;99.90;;;;;;5034274;28;20045;-64
2022/08/18 12:49:36;;;;;;;4.25;1.23;;;22.90;99.90;;;;;;5034569;28;20091;-64
2022/08/18 12:52:03;;;;;;;3.70;1.45;;;22.80;99.90;;;;;;5015250;28;20430;-64
2022/08/18 12:54:30;;;;;;;3.72;1.65;;;22.90;99.90;;;;;;5034423;28;20676;-64
2022/08/18 12:56:57;;;;;;;2.30;1.10;;;23.10;99.90;;;;;;5016264;28;20116;-64
2022/08/18 12:59:23;;;;;;;3.10;1.27;;;23.00;99.90;;;;;;5034117;28;20041;-64
2022/08/18 13:01:49;;;;;;;3.92;1.17;;;22.90;99.90;;;;;;5033917;28;20033;-64
2022/08/18 13:04:15;;;;;;;2.58;1.30;;;23.00;99.90;;;;;;5033747;28;20052;-64
2022/08/18 13:07:09;;;;;;;2.20;1.00;;;23.10;99.90;;;;;;5015997;28;20052;-64
2022/08/18 13:09:37;;;;;;;2.83;0.98;;;23.00;99.90;;;;;;5031976;28;20448;-64
2022/08/18 13:12:03;;;;;;;2.35;0.98;;;23.30;99.90;;;;;;5033793;28;20400;-64
2022/08/18 13:14:28;;;;;;;3.30;1.23;;;23.20;99.90;;;;;;5016402;28;20045;-64
2022/08/18 13:16:54;;;;;;;3.95;1.00;;;23.10;99.90;;;;;;5033707;28;20037;-64
2022/08/18 13:19:20;;;;;;;2.67;1.48;;;23.30;99.90;;;;;;5033693;28;20112;-64
2022/08/18 13:21:45;;;;;;;2.08;1.05;;;23.40;99.90;;;;;;5033806;28;20072;-64
2022/08/18 13:24:11;;;;;;;3.78;1.15;;;23.30;99.90;;;;;;5033719;28;20112;-64